createdAt,value
2018-07-25T00:00:23.668Z,90.09
2018-07-25T00:02:52.659Z,90.86
2018-07-25T00:05:22.077Z,90.38
2018-07-25T00:07:51.194Z,90.88
2018-07-25T00:10:20.303Z,89.95
2018-07-25T00:12:50.186Z,89.85
2018-07-25T00:15:18.990Z,90.29
2018-07-25T00:17:47.867Z,90.66
2018-07-25T00:20:17.138Z,90.19
2018-07-25T00:22:46.767Z,88.97
2018-07-25T00:25:16.093Z,89.34
2018-07-25T00:27:44.952Z,88.99
2018-07-25T00:30:13.731Z,88.77
2018-07-25T00:32:42.759Z,88.83
2018-07-25T00:35:11.528Z,89.57
2018-07-25T00:37:40.436Z,90.61
2018-07-25T00:40:09.582Z,89.99
2018-07-25T00:42:38.727Z,89.35
2018-07-25T00:45:08.334Z,89.40
2018-07-25T00:47:37.498Z,89.33
2018-07-25T00:50:06.606Z,89.88
2018-07-25T00:52:36.008Z,90.58
2018-07-25T00:55:05.319Z,90.89
2018-07-25T00:57:34.159Z,90.70
2018-07-25T01:00:03.254Z,89.72
2018-07-25T01:02:33.574Z,90.16
2018-07-25T01:05:02.206Z,89.78
2018-07-25T01:07:31.694Z,89.70
2018-07-25T01:10:01.032Z,88.72
2018-07-25T01:12:30.132Z,88.62
2018-07-25T01:14:59.328Z,89.10
2018-07-25T01:17:28.787Z,89.06
2018-07-25T01:19:57.792Z,88.59
2018-07-25T01:22:26.666Z,87.97
2018-07-25T01:24:55.847Z,87.45
2018-07-25T01:27:24.696Z,88.46
2018-07-25T01:29:54.020Z,88.42
2018-07-25T01:32:23.231Z,87.66
2018-07-25T01:34:53.567Z,87.94
2018-07-25T01:37:22.187Z,87.63
2018-07-25T01:39:51.415Z,88.09
2018-07-25T01:42:20.203Z,88.64
2018-07-25T01:44:49.820Z,88.23
2018-07-25T01:47:19.090Z,89.01
2018-07-25T01:49:47.935Z,89.31
2018-07-25T01:52:16.905Z,89.91
2018-07-25T01:54:47.408Z,90.10
2018-07-25T01:57:16.503Z,88.85
2018-07-25T01:59:45.462Z,89.69
2018-07-25T02:02:14.934Z,90.30
2018-07-25T02:04:43.936Z,91.06
2018-07-25T02:07:13.019Z,90.76
2018-07-25T02:09:43.270Z,91.55
2018-07-25T02:12:12.259Z,92.07
2018-07-25T02:14:41.018Z,91.79
2018-07-25T02:17:10.246Z,91.67
2018-07-25T02:19:39.437Z,91.78
2018-07-25T02:22:08.428Z,92.05
2018-07-25T02:24:37.214Z,92.37
2018-07-25T02:27:06.965Z,92.24
2018-07-25T02:29:36.442Z,91.86
2018-07-25T02:32:05.580Z,92.75
2018-07-25T02:34:34.604Z,92.73
2018-07-25T02:37:03.653Z,92.30
2018-07-25T02:39:32.619Z,92.50
2018-07-25T02:42:01.611Z,92.38
2018-07-25T02:44:31.103Z,92.61
2018-07-25T02:46:59.913Z,92.29
2018-07-25T02:49:29.094Z,92.18
2018-07-25T02:51:58.223Z,92.08
2018-07-25T02:54:27.199Z,92.14
2018-07-25T02:56:56.113Z,91.72
2018-07-25T02:59:25.323Z,91.46
2018-07-25T03:01:54.128Z,90.78
2018-07-25T03:04:22.990Z,90.83
2018-07-25T03:06:52.205Z,91.04
2018-07-25T03:09:21.263Z,90.11
2018-07-25T03:11:50.434Z,89.83
2018-07-25T03:14:19.757Z,89.86
2018-07-25T03:16:48.839Z,89.23
2018-07-25T03:19:17.503Z,89.74
2018-07-25T03:21:46.878Z,89.32
2018-07-25T03:24:15.743Z,89.57
2018-07-25T03:26:44.479Z,89.07
2018-07-25T03:29:13.310Z,88.44
2018-07-25T03:31:42.033Z,88.76
2018-07-25T03:34:11.076Z,88.96
2018-07-25T03:36:39.951Z,88.93
2018-07-25T03:39:09.135Z,88.70
2018-07-25T03:41:38.430Z,88.30
2018-07-25T03:44:07.360Z,88.04
2018-07-25T03:46:36.111Z,87.10
2018-07-25T03:49:06.029Z,87.53
2018-07-25T03:51:35.451Z,87.66
2018-07-25T03:54:04.348Z,87.23
2018-07-25T03:56:34.187Z,86.97
2018-07-25T03:59:03.059Z,87.10
2018-07-25T04:01:32.007Z,87.30
2018-07-25T04:04:01.265Z,87.01
2018-07-25T04:06:30.027Z,86.79
2018-07-25T04:08:58.926Z,87.05
2018-07-25T04:11:27.630Z,87.11
2018-07-25T04:13:56.490Z,86.80
2018-07-25T04:16:25.295Z,86.50
2018-07-25T04:18:54.140Z,86.67
2018-07-25T04:21:23.289Z,86.31
2018-07-25T04:23:52.774Z,85.57
2018-07-25T04:26:21.927Z,84.92
2018-07-25T04:28:51.051Z,84.85
2018-07-25T04:31:20.294Z,83.90
2018-07-25T04:33:51.007Z,83.65
2018-07-25T04:36:19.912Z,83.02
2018-07-25T04:38:48.699Z,83.48
2018-07-25T04:41:17.928Z,82.95
2018-07-25T04:43:47.031Z,81.84
2018-07-25T04:46:16.174Z,81.87
2018-07-25T04:48:45.388Z,81.35
2018-07-25T04:51:14.181Z,81.70
2018-07-25T04:53:43.288Z,81.14
2018-07-25T04:56:12.960Z,81.48
2018-07-25T04:58:41.785Z,81.25
2018-07-25T05:01:10.941Z,80.72
2018-07-25T05:03:40.991Z,80.23
2018-07-25T05:06:10.104Z,80.24
2018-07-25T05:08:39.066Z,81.55
2018-07-25T05:11:08.505Z,83.57
2018-07-25T05:13:37.464Z,83.58
2018-07-25T05:16:07.312Z,86.96
2018-07-25T05:18:36.728Z,88.56
2018-07-25T05:21:05.791Z,88.53
2018-07-25T05:23:34.713Z,86.99
2018-07-25T05:26:04.066Z,87.57
2018-07-25T05:28:32.940Z,85.48
2018-07-25T05:31:01.878Z,84.52
2018-07-25T05:33:31.397Z,81.14
2018-07-25T05:36:00.389Z,75.43
2018-07-25T05:38:29.076Z,65.98
2018-07-25T05:40:58.574Z,63.14
2018-07-25T05:43:27.765Z,62.81
2018-07-25T05:45:56.971Z,59.06
2018-07-25T05:48:26.271Z,58.02
2018-07-25T05:50:55.181Z,55.65
2018-07-25T05:53:24.052Z,56.45
2018-07-25T05:55:53.075Z,58.65
2018-07-25T05:58:22.227Z,60.65
2018-07-25T06:00:51.436Z,61.21
2018-07-25T06:03:20.436Z,64.17
2018-07-25T06:05:49.572Z,64.54
2018-07-25T06:08:19.091Z,66.95
2018-07-25T06:10:48.422Z,68.20
2018-07-25T06:13:17.516Z,69.12
2018-07-25T06:15:46.527Z,72.73
2018-07-25T06:18:15.843Z,74.47
2018-07-25T06:20:45.949Z,75.12
2018-07-25T06:23:15.241Z,75.75
2018-07-25T06:25:44.342Z,76.42
2018-07-25T06:28:13.553Z,76.53
2018-07-25T06:30:42.442Z,77.43
2018-07-25T06:33:11.438Z,78.16
2018-07-25T06:35:40.433Z,77.23
2018-07-25T06:38:09.639Z,80.75
2018-07-25T06:40:38.728Z,82.19
2018-07-25T06:43:07.724Z,81.12
2018-07-25T06:45:37.158Z,81.84
2018-07-25T06:48:06.947Z,82.87
2018-07-25T06:50:36.208Z,80.18
2018-07-25T06:53:05.326Z,77.01
2018-07-25T06:55:34.141Z,76.73
2018-07-25T06:58:03.822Z,75.49
2018-07-25T07:00:33.194Z,76.76
2018-07-25T07:03:02.255Z,74.92
2018-07-25T07:05:31.160Z,74.00
2018-07-25T07:08:00.611Z,73.44
2018-07-25T07:10:29.429Z,74.13
2018-07-25T07:12:58.617Z,73.90
2018-07-25T07:15:27.987Z,74.18
2018-07-25T07:17:57.246Z,73.61
2018-07-25T07:20:26.362Z,72.20
2018-07-25T07:22:55.815Z,74.90
2018-07-25T07:25:24.584Z,73.70
2018-07-25T07:27:53.576Z,75.51
2018-07-25T07:30:23.158Z,75.30
2018-07-25T07:32:52.573Z,75.51
2018-07-25T07:35:21.760Z,78.03
2018-07-25T07:37:50.993Z,77.47
2018-07-25T07:40:22.025Z,76.22
2018-07-25T07:42:51.630Z,73.52
2018-07-25T07:45:20.947Z,72.71
2018-07-25T07:47:50.124Z,71.41
2018-07-25T07:50:19.727Z,67.92
2018-07-25T07:52:48.721Z,68.43
2018-07-25T07:55:18.524Z,63.13
2018-07-25T07:57:47.480Z,65.64
2018-07-25T08:00:17.397Z,66.84
2018-07-25T08:02:47.559Z,66.56
2018-07-25T08:05:17.604Z,65.83
2018-07-25T08:07:46.770Z,65.56
2018-07-25T08:10:15.774Z,66.76
2018-07-25T08:12:44.898Z,63.87
2018-07-25T08:15:13.978Z,62.31
2018-07-25T08:17:42.974Z,63.03
2018-07-25T08:20:12.424Z,64.10
2018-07-25T08:22:41.908Z,62.91
2018-07-25T08:25:10.959Z,63.39
2018-07-25T08:27:40.074Z,63.44
2018-07-25T08:30:09.017Z,62.52
2018-07-25T08:32:38.090Z,62.18
2018-07-25T08:35:07.022Z,63.83
2018-07-25T08:37:36.456Z,62.99
2018-07-25T08:40:06.582Z,62.71
2018-07-25T08:42:35.874Z,62.93
2018-07-25T08:45:06.312Z,62.50
2018-07-25T08:47:35.180Z,61.39
2018-07-25T08:50:05.394Z,61.16
2018-07-25T08:52:34.417Z,59.86
2018-07-25T08:55:03.388Z,63.13
2018-07-25T08:57:32.944Z,61.61
2018-07-25T09:00:02.091Z,62.04
2018-07-25T09:02:31.500Z,62.93
2018-07-25T09:05:00.938Z,64.30
2018-07-25T09:07:29.856Z,66.62
2018-07-25T09:09:59.104Z,67.52
2018-07-25T09:12:28.275Z,68.30
2018-07-25T09:14:56.943Z,70.92
2018-07-25T09:17:25.786Z,71.53
2018-07-25T09:19:55.160Z,70.98
2018-07-25T09:22:25.102Z,70.23
2018-07-25T09:24:54.207Z,73.75
2018-07-25T09:27:23.939Z,75.45
2018-07-25T09:29:52.797Z,75.08
2018-07-25T09:32:22.207Z,73.32
2018-07-25T09:34:52.040Z,76.45
2018-07-25T09:37:21.481Z,77.80
2018-07-25T09:39:55.370Z,78.20
2018-07-25T09:42:26.260Z,80.48
2018-07-25T09:44:56.134Z,77.96
2018-07-25T09:47:25.296Z,79.68
2018-07-25T09:49:54.276Z,80.90
2018-07-25T09:52:23.886Z,80.36
2018-07-25T09:54:52.621Z,80.39
2018-07-25T09:57:21.678Z,79.10
2018-07-25T09:59:50.827Z,79.59
2018-07-25T10:02:19.688Z,78.16
2018-07-25T10:04:48.644Z,77.68
2018-07-25T10:07:18.142Z,75.79
2018-07-25T10:09:46.843Z,74.44
2018-07-25T10:12:15.769Z,73.12
2018-07-25T10:14:45.167Z,68.99
2018-07-25T10:17:14.658Z,69.45
2018-07-25T10:19:43.358Z,67.65
2018-07-25T10:22:12.699Z,68.91
2018-07-25T10:24:41.807Z,66.88
2018-07-25T10:27:10.835Z,67.13
2018-07-25T10:29:39.991Z,66.95
2018-07-25T10:32:09.156Z,67.97
2018-07-25T10:34:38.419Z,69.90
2018-07-25T10:37:07.431Z,71.49
2018-07-25T10:39:36.306Z,70.09
2018-07-25T10:42:05.934Z,71.79
2018-07-25T10:44:35.136Z,72.53
2018-07-25T10:47:04.210Z,73.64
2018-07-25T10:49:33.847Z,71.05
2018-07-25T10:52:02.906Z,71.82
2018-07-25T10:54:32.360Z,73.83
2018-07-25T10:57:01.337Z,75.91
2018-07-25T10:59:30.612Z,73.75
2018-07-25T11:01:59.740Z,73.89
2018-07-25T11:04:28.924Z,70.48
2018-07-25T11:06:58.142Z,73.89
2018-07-25T11:09:27.181Z,72.37
2018-07-25T11:11:56.333Z,68.90
2018-07-25T11:14:25.719Z,68.48
2018-07-25T11:16:55.945Z,68.25
2018-07-25T11:19:25.357Z,67.84
2018-07-25T11:21:54.272Z,65.57
2018-07-25T11:24:23.212Z,64.82
2018-07-25T11:26:52.124Z,65.73
2018-07-25T11:29:21.326Z,62.94
2018-07-25T11:31:51.007Z,62.50
2018-07-25T11:34:19.947Z,60.03
2018-07-25T11:36:48.895Z,64.49
2018-07-25T11:39:18.105Z,62.20
2018-07-25T11:41:47.023Z,59.57
2018-07-25T11:44:16.436Z,60.21
2018-07-25T11:46:46.126Z,59.38
2018-07-25T11:49:15.207Z,58.31
2018-07-25T11:51:44.477Z,59.27
2018-07-25T11:54:13.425Z,56.98
2018-07-25T11:56:42.330Z,58.16
2018-07-25T11:59:11.543Z,59.40
2018-07-25T12:01:40.708Z,58.60
2018-07-25T12:04:09.715Z,58.92
2018-07-25T12:06:39.343Z,58.98
2018-07-25T12:09:09.938Z,58.61
2018-07-25T12:11:46.550Z,59.46
2018-07-25T12:14:17.046Z,58.92
2018-07-25T12:16:47.614Z,58.83
2018-07-25T12:19:17.308Z,57.69
2018-07-25T12:21:46.979Z,55.18
2018-07-25T12:24:16.172Z,55.06
2018-07-25T12:26:45.237Z,54.65
2018-07-25T12:29:14.302Z,53.67
2018-07-25T12:31:43.615Z,52.66
2018-07-25T12:34:12.338Z,52.94
2018-07-25T12:36:41.402Z,51.20
2018-07-25T12:39:11.270Z,53.11
2018-07-25T12:41:40.464Z,51.99
2018-07-25T12:44:10.301Z,52.53
2018-07-25T12:46:39.312Z,54.46
2018-07-25T12:49:08.774Z,53.94
2018-07-25T12:51:37.683Z,54.35
2018-07-25T12:54:06.990Z,54.38
2018-07-25T12:56:36.006Z,54.25
2018-07-25T12:59:05.107Z,52.26
2018-07-25T13:01:34.391Z,52.48
2018-07-25T13:04:03.593Z,52.29
2018-07-25T13:06:32.596Z,52.52
2018-07-25T13:09:01.981Z,51.68
2018-07-25T13:11:31.489Z,52.43
2018-07-25T13:14:01.124Z,53.57
2018-07-25T13:16:30.305Z,53.55
2018-07-25T13:18:59.218Z,52.69
2018-07-25T13:21:28.186Z,53.11
2018-07-25T13:23:57.480Z,54.22
2018-07-25T13:26:26.348Z,53.55
2018-07-25T13:28:55.936Z,55.18
2018-07-25T13:31:25.474Z,56.43
2018-07-25T13:33:54.406Z,57.20
2018-07-25T13:36:23.571Z,59.09
2018-07-25T13:38:52.902Z,59.02
2018-07-25T13:41:22.094Z,56.84
2018-07-25T13:43:51.197Z,56.11
2018-07-25T13:46:21.218Z,56.02
2018-07-25T13:48:50.024Z,56.77
2018-07-25T13:51:19.004Z,55.89
2018-07-25T13:53:48.662Z,56.66
2018-07-25T13:56:17.930Z,57.13
2018-07-25T13:58:47.008Z,56.73
2018-07-25T14:01:16.446Z,57.51
2018-07-25T14:03:45.456Z,56.82
2018-07-25T14:06:14.709Z,57.09
2018-07-25T14:08:43.859Z,57.38
2018-07-25T14:11:13.522Z,57.41
2018-07-25T14:13:42.634Z,58.08
2018-07-25T14:16:12.068Z,57.27
2018-07-25T14:18:41.307Z,57.52
2018-07-25T14:21:10.967Z,57.83
2018-07-25T14:23:40.164Z,58.57
2018-07-25T14:26:09.402Z,58.82
2018-07-25T14:28:38.339Z,59.81
2018-07-25T14:31:07.659Z,59.77
2018-07-25T14:33:36.730Z,60.17
2018-07-25T14:36:05.907Z,61.32
2018-07-25T14:38:35.425Z,62.11
2018-07-25T14:41:04.526Z,61.32
2018-07-25T14:43:33.631Z,59.99
2018-07-25T14:46:02.569Z,59.97
2018-07-25T14:48:31.409Z,59.92
2018-07-25T14:51:00.842Z,60.02
2018-07-25T14:53:30.414Z,58.98
2018-07-25T14:55:59.453Z,59.66
2018-07-25T14:58:28.529Z,57.97
2018-07-25T15:00:58.052Z,58.08
2018-07-25T15:03:27.437Z,57.51
2018-07-25T15:05:56.419Z,57.36
2018-07-25T15:08:25.936Z,57.21
2018-07-25T15:10:55.017Z,56.72
2018-07-25T15:13:24.185Z,56.07
2018-07-25T15:15:53.642Z,56.31
2018-07-25T15:18:22.551Z,56.24
2018-07-25T15:20:51.592Z,56.38
2018-07-25T15:23:31.993Z,57.38
2018-07-25T15:26:01.296Z,56.13
2018-07-25T15:28:31.328Z,56.76
2018-07-25T15:31:00.810Z,56.35
2018-07-25T15:33:30.515Z,57.83
2018-07-25T15:35:59.470Z,58.59
2018-07-25T15:38:28.627Z,59.13
2018-07-25T15:40:57.801Z,59.80
2018-07-25T15:43:26.683Z,60.02
2018-07-25T15:45:56.256Z,58.60
2018-07-25T15:48:25.310Z,57.55
2018-07-25T15:50:54.461Z,58.27
2018-07-25T15:53:23.835Z,58.45
2018-07-25T15:55:53.312Z,58.54
2018-07-25T15:58:22.309Z,57.99
2018-07-25T16:00:52.135Z,57.59
2018-07-25T16:03:21.413Z,56.65
2018-07-25T16:05:50.214Z,57.59
2018-07-25T16:08:19.420Z,58.04
2018-07-25T16:10:48.513Z,58.04
2018-07-25T16:13:17.922Z,58.15
2018-07-25T16:15:47.361Z,57.52
2018-07-25T16:18:16.407Z,56.58
2018-07-25T16:20:45.493Z,57.84
2018-07-25T16:23:14.811Z,57.64
2018-07-25T16:25:43.686Z,57.93
2018-07-25T16:28:12.969Z,60.56
2018-07-25T16:30:42.288Z,63.97
2018-07-25T16:33:11.221Z,62.88
2018-07-25T16:35:40.369Z,63.20
2018-07-25T16:38:10.433Z,64.42
2018-07-25T16:40:39.298Z,66.33
2018-07-25T16:43:08.341Z,67.45
2018-07-25T16:45:37.734Z,68.63
2018-07-25T16:48:06.902Z,68.42
2018-07-25T16:50:36.007Z,69.70
2018-07-25T16:53:05.559Z,71.48
2018-07-25T16:55:34.295Z,72.32
2018-07-25T16:58:03.359Z,73.66
2018-07-25T17:00:33.112Z,75.20
2018-07-25T17:03:03.551Z,75.73
2018-07-25T17:05:33.623Z,76.47
2018-07-25T17:08:02.953Z,77.26
2018-07-25T17:10:32.562Z,78.47
2018-07-25T17:13:02.679Z,78.88
2018-07-25T17:15:35.316Z,79.16
2018-07-25T17:18:04.865Z,80.65
2018-07-25T17:20:33.791Z,82.09
2018-07-25T17:23:03.667Z,83.89
2018-07-25T17:25:32.915Z,85.94
2018-07-25T17:28:04.148Z,86.15
2018-07-25T17:33:33.231Z,87.80
2018-07-25T17:36:03.464Z,89.36
2018-07-25T17:38:34.675Z,90.29
2018-07-25T17:41:04.809Z,88.70
2018-07-25T17:43:36.677Z,89.36
2018-07-25T17:46:05.611Z,88.74
2018-07-25T17:48:34.627Z,88.91
2018-07-25T17:51:03.923Z,89.36
2018-07-25T17:53:33.302Z,89.42
2018-07-25T17:56:02.114Z,89.25
2018-07-25T17:58:30.957Z,87.41
2018-07-25T18:00:59.882Z,87.88
2018-07-25T18:03:28.739Z,87.01
2018-07-25T18:05:57.708Z,87.28
2018-07-25T18:08:26.668Z,87.17
2018-07-25T18:10:55.712Z,85.96
2018-07-25T18:13:30.582Z,86.09
2018-07-25T18:15:59.392Z,86.22
2018-07-25T18:20:57.103Z,86.34
2018-07-25T18:23:25.962Z,87.22
2018-07-25T18:25:55.363Z,87.32
2018-07-25T18:28:24.659Z,87.57
2018-07-25T18:30:54.391Z,87.29
2018-07-25T18:33:23.372Z,87.42
2018-07-25T18:35:52.515Z,87.49
2018-07-25T18:38:21.447Z,87.92
2018-07-25T18:40:51.691Z,87.04
2018-07-25T18:43:20.916Z,87.09
2018-07-25T18:45:49.602Z,86.30
2018-07-25T18:48:19.666Z,85.73
2018-07-25T18:50:52.271Z,85.36
2018-07-25T18:56:01.671Z,86.79
2018-07-25T18:58:31.050Z,86.85
2018-07-25T19:00:59.923Z,85.72
2018-07-25T19:03:29.703Z,86.19
2018-07-25T19:05:59.155Z,86.03
2018-07-25T19:08:28.116Z,85.68
2018-07-25T19:10:57.028Z,85.29
2018-07-25T19:13:31.571Z,84.55
2018-07-25T19:16:00.546Z,84.64
2018-07-25T19:18:29.828Z,84.41
2018-07-25T19:20:59.367Z,85.25
2018-07-25T19:23:28.352Z,84.67
2018-07-25T19:25:57.632Z,85.00
2018-07-25T19:28:26.549Z,85.45
2018-07-25T19:30:55.437Z,85.56
2018-07-25T19:33:24.322Z,85.48
2018-07-25T19:35:54.164Z,85.59
2018-07-25T19:38:22.926Z,85.72
2018-07-25T19:40:52.726Z,85.54
2018-07-25T19:43:21.954Z,86.01
2018-07-25T19:45:51.151Z,87.62
2018-07-25T19:48:21.423Z,86.51
2018-07-25T19:50:50.261Z,86.61
2018-07-25T19:53:19.357Z,87.63
2018-07-25T19:55:48.485Z,87.27
2018-07-25T19:58:17.324Z,87.02
2018-07-25T20:00:46.160Z,86.94
2018-07-25T20:03:16.378Z,87.34
2018-07-25T20:05:45.206Z,87.64
2018-07-25T20:08:14.031Z,87.76
2018-07-25T20:10:43.203Z,88.00
2018-07-25T20:13:12.199Z,88.34
2018-07-25T20:15:47.111Z,89.67
2018-07-25T20:18:15.862Z,89.66
2018-07-25T20:20:44.839Z,90.50
2018-07-25T20:23:14.023Z,88.74
2018-07-25T20:25:43.042Z,89.98
2018-07-25T20:28:12.690Z,90.10
2018-07-25T20:30:41.852Z,90.82
2018-07-25T20:33:10.845Z,90.52
2018-07-25T20:35:39.836Z,90.28
2018-07-25T20:38:08.847Z,90.38
2018-07-25T20:40:37.828Z,91.27
2018-07-25T20:43:08.874Z,91.64
2018-07-25T20:45:38.684Z,91.72
2018-07-25T20:48:08.606Z,92.03
2018-07-25T20:50:38.536Z,92.44
2018-07-25T20:53:09.750Z,92.72
2018-07-25T20:55:39.274Z,92.52
2018-07-25T20:58:11.874Z,92.73
2018-07-25T21:00:42.236Z,92.61
2018-07-25T21:03:13.243Z,92.72
2018-07-25T21:05:44.436Z,92.78
2018-07-25T21:08:13.355Z,92.77
2018-07-25T21:10:42.481Z,92.94
2018-07-25T21:13:11.266Z,93.32
2018-07-25T21:15:40.035Z,93.07
2018-07-25T21:18:09.387Z,93.76
2018-07-25T21:20:38.448Z,93.60
2018-07-25T21:23:07.245Z,93.55
2018-07-25T21:25:36.324Z,93.33
2018-07-25T21:28:05.198Z,93.37
2018-07-25T21:30:34.638Z,93.33
2018-07-25T21:33:03.799Z,93.32
2018-07-25T21:35:32.533Z,94.12
2018-07-25T21:38:01.632Z,94.26
2018-07-25T21:40:30.573Z,94.28
2018-07-25T21:42:59.492Z,94.35
2018-07-25T21:45:28.474Z,93.39
2018-07-25T21:47:58.075Z,93.64
2018-07-25T21:50:27.283Z,94.38
2018-07-25T21:52:56.451Z,94.31
2018-07-25T21:55:26.126Z,94.12
2018-07-25T21:57:55.218Z,93.83
2018-07-25T22:00:24.179Z,93.90
2018-07-25T22:02:53.354Z,94.36
2018-07-25T22:05:23.286Z,94.13
2018-07-25T22:07:52.335Z,93.98
2018-07-25T22:10:21.502Z,93.61
2018-07-25T22:12:51.104Z,93.77
2018-07-25T22:15:20.126Z,93.55
2018-07-25T22:17:50.363Z,92.74
2018-07-25T22:20:19.439Z,92.69
2018-07-25T22:22:48.311Z,93.00
2018-07-25T22:25:17.650Z,93.58
2018-07-25T22:27:46.778Z,93.64
2018-07-25T22:30:15.918Z,93.63
2018-07-25T22:32:44.868Z,94.18
2018-07-25T22:35:13.825Z,93.67
2018-07-25T22:37:42.727Z,93.96
2018-07-25T22:40:11.638Z,93.87
2018-07-25T22:42:40.497Z,93.23
2018-07-25T22:45:09.762Z,93.66
2018-07-25T22:47:38.843Z,93.91
2018-07-25T22:50:07.588Z,93.76
2018-07-25T22:52:36.275Z,93.64
2018-07-25T22:55:05.903Z,93.80
2018-07-25T22:57:34.855Z,93.68
2018-07-25T23:00:05.139Z,93.79
2018-07-25T23:02:35.028Z,93.92
2018-07-25T23:05:04.203Z,94.44
2018-07-25T23:07:33.315Z,94.09
2018-07-25T23:10:02.826Z,93.81
2018-07-25T23:12:31.701Z,93.37
2018-07-25T23:15:00.720Z,93.85
2018-07-25T23:17:30.035Z,93.11
2018-07-25T23:19:58.994Z,93.52
2018-07-25T23:22:27.732Z,93.85
2018-07-25T23:24:56.912Z,93.62
2018-07-25T23:27:26.049Z,94.63
2018-07-25T23:29:54.871Z,94.74
2018-07-25T23:32:24.312Z,95.01
2018-07-25T23:34:53.711Z,94.16
2018-07-25T23:37:22.638Z,93.98
2018-07-25T23:39:51.738Z,94.43
2018-07-25T23:42:20.747Z,94.51
2018-07-25T23:44:49.854Z,95.41
2018-07-25T23:47:18.639Z,95.06
2018-07-25T23:49:47.543Z,94.97
2018-07-25T23:52:16.410Z,94.99
2018-07-25T23:54:45.501Z,94.87
2018-07-25T23:57:15.666Z,94.54
2018-07-25T23:59:44.848Z,94.72
